Chelmsford, MA

5:40 PM EDT on March 29, 2015 (GMT -0400)
Boire | | Change Station
CLOSE
Current Station
Airport
Location: Nashua,
Elevation: 200 ft
Nearby Weather Stations

Elev 200 ft 42.78 °N, 71.51 °W | Updated 49 minutes ago

Clear
Clear
43 °F
Feels Like 39 °F
N
7
Wind Variable Wind from North
Gusts 13 mph

Today
High -- | Low -- °F
--% Chance of Precip.
Yesterday
High -- | Low -- °F
Precip. -- in
6:33 AM 7:07 PM
Waxing Gibbous, 74% visible
Pressure 30.86 in
Visibility 10.0 miles
Clouds Clear
Windchill 39 °F
Dew Point 0 °F
Humidity 17%
Rainfall 0.00 in
Snow Depth Not available.
UV 2 out of 12
Pollen 2.90 out of 12
Air Quality Not available.
Flu Activity Not available.
METAR KASH 292051Z 35006G11KT 10SM CLR 06/M18 A3009 RMK AO2 56022 T00611177 SLP448 $

More Conditions Fewer Conditions

Pressure 30.86 in
Visibility 10.0 miles
Clouds Clear
Windchill 39 °F
Dew Point 0 °F
Humidity 17%
Rainfall 0.00 in
Snow Depth Not available.
UV 2 out of 12
Pollen 2.90 out of 12
Air Quality Not available.
Flu Activity Not available.
METAR KASH 292051Z 35006G11KT 10SM CLR 06/M18 A3009 RMK AO2 56022 T00611177 SLP448 $

More Conditions Fewer Conditions

10-Day Weather Forecast

Almanac

Astronomy

Mar. 29, 2015 Rise Set
Actual Time
Civil Twilight
Nautical Twilight
Astronomical Twilight
Moon
Length of Visible Light
Length of Day
Tomorrow will be .
, % of the Moon is Illuminated

Today's Extremes

State Highs State Lows

Community

WunderPhotos

Upload Photos

1,809,364 photos uploaded!

WunderBlogs® & News

Nearby

Air Quality

  Air Quality AQ Index Pollutant
Not available.

Snow Depth

Station Depth Elevation

Earthquake Activity

City Distance Mag. Time & Date
Minimum magnitude displayed is 2.5.

Coastal Water Temperatures

Place Temperature

Stations

Nearby Weather Stations

Station Location Temp. Windchill Dew Point Humidity Wind Precip. Elev Updated Type